Time,TemperatureF,DewpointF,PressureIn,WindDirection,WindDirectionDegrees,WindSpeedMPH,WindSpeedGustMPH,Humidity,HourlyPrecipIn,Conditions,Clouds,dailyrainin,SoftwareType,DateUTC
2013-03-01 00:00:00,53.1,50.5,30.45,South,188,1.0,1.0,91,0.00,,,0.02,Wunderground v.1.15,2013-03-01 08:00:00,
2013-03-01 00:10:00,53.2,50.6,30.44,SE,132,3.0,5.0,91,0.00,,,0.00,Wunderground v.1.15,2013-03-01 08:10:00,
2013-03-01 00:15:00,53.2,50.6,30.44,SSE,167,4.0,5.0,91,0.00,,,0.00,Wunderground v.1.15,2013-03-01 08:15:00,
2013-03-01 00:25:00,53.2,50.6,30.43,SSE,150,5.0,5.0,91,0.00,,,0.00,Wunderground v.1.15,2013-03-01 08:25:00,
2013-03-01 00:30:00,53.2,50.6,30.44,South,186,4.0,7.0,91,0.00,,,0.00,Wunderground v.1.15,2013-03-01 08:30:00,
2013-03-01 00:40:00,53.3,50.4,30.44,South,171,5.0,12.0,90,0.00,,,0.00,Wunderground v.1.15,2013-03-01 08:40:00,
2013-03-01 00:50:00,53.4,50.5,30.44,South,173,6.0,6.0,90,0.00,,,0.00,Wunderground v.1.15,2013-03-01 08:50:00,
2013-03-01 00:55:00,53.4,50.5,30.43,SE,146,4.0,6.0,90,0.00,,,0.00,Wunderground v.1.15,2013-03-01 08:55:00,
2013-03-01 01:00:00,53.4,50.5,30.44,SSW,196,3.0,4.0,90,0.00,,,0.00,Wunderground v.1.15,2013-03-01 09:00:00,
2013-03-01 01:10:00,53.4,50.5,30.43,SE,141,4.0,6.0,90,0.00,,,0.00,Wunderground v.1.15,2013-03-01 09:10:00,
2013-03-01 01:15:00,53.4,50.5,30.44,South,170,4.0,6.0,90,0.00,,,0.00,Wunderground v.1.15,2013-03-01 09:15:00,
2013-03-01 01:25:00,53.4,50.5,30.44,South,174,4.0,5.0,90,0.00,,,0.00,Wunderground v.1.15,2013-03-01 09:25:00,
2013-03-01 01:30:00,53.3,50.4,30.44,SE,146,4.0,4.0,90,0.00,,,0.00,Wunderground v.1.15,2013-03-01 09:30:00,
2013-03-01 01:40:00,53.4,50.5,30.44,South,187,4.0,6.0,90,0.00,,,0.00,Wunderground v.1.15,2013-03-01 09:40:00,
2013-03-01 01:50:00,53.3,50.4,30.45,South,186,4.0,9.0,90,0.00,,,0.00,Wunderground v.1.15,2013-03-01 09:50:00,
2013-03-01 01:55:00,53.3,50.4,30.44,SSE,166,4.0,9.0,90,0.00,,,0.00,Wunderground v.1.15,2013-03-01 09:55:00,
2013-03-01 02:00:00,53.3,50.4,30.45,South,169,5.0,5.0,90,0.00,,,0.00,Wunderground v.1.15,2013-03-01 10:00:00,
2013-03-01 02:10:00,53.2,50.3,30.44,SSW,196,4.0,9.0,90,0.00,,,0.00,Wunderground v.1.15,2013-03-01 10:10:00,
2013-03-01 02:15:00,53.2,50.3,30.44,South,180,5.0,9.0,90,0.00,,,0.00,Wunderground v.1.15,2013-03-01 10:15:00,
2013-03-01 02:25:00,53.2,50.3,30.44,SSW,207,5.0,5.0,90,0.00,,,0.00,Wunderground v.1.15,2013-03-01 10:25:00,
2013-03-01 02:30:00,53.2,50.3,30.44,SSW,194,5.0,5.0,90,0.00,,,0.00,Wunderground v.1.15,2013-03-01 10:30:00,
2013-03-01 02:40:00,53.2,50.3,30.44,South,182,4.0,4.0,90,0.00,,,0.00,Wunderground v.1.15,2013-03-01 10:40:00,
2013-03-01 02:50:00,53.1,50.2,30.44,SSE,163,3.0,6.0,90,0.00,,,0.00,Wunderground v.1.15,2013-03-01 10:50:00,
2013-03-01 02:55:00,53.0,50.1,30.44,South,175,4.0,6.0,90,0.00,,,0.00,Wunderground v.1.15,2013-03-01 10:55:00,
2013-03-01 03:00:00,53.0,50.1,30.44,SW,228,4.0,4.0,90,0.00,,,0.00,Wunderground v.1.15,2013-03-01 11:00:00,
2013-03-01 03:05:00,53.0,50.1,30.44,South,175,3.0,4.0,90,0.00,,,0.00,Wunderground v.1.15,2013-03-01 11:05:00,
2013-03-01 03:10:00,53.1,50.2,30.44,South,175,4.0,4.0,90,0.00,,,0.00,Wunderground v.1.15,2013-03-01 11:10:00,
2013-03-01 03:15:00,53.1,50.2,30.43,South,169,4.0,4.0,90,0.00,,,0.00,Wunderground v.1.15,2013-03-01 11:15:00,
2013-03-01 03:25:00,53.1,50.2,30.44,South,182,4.0,4.0,90,0.00,,,0.00,Wunderground v.1.15,2013-03-01 11:25:00,
2013-03-01 03:30:00,53.1,50.2,30.44,South,175,4.0,4.0,90,0.00,,,0.00,Wunderground v.1.15,2013-03-01 11:30:00,
2013-03-01 03:40:00,53.1,50.2,30.44,SSW,192,3.0,3.0,90,0.00,,,0.00,Wunderground v.1.15,2013-03-01 11:40:00,
2013-03-01 03:50:00,53.1,50.2,30.44,South,171,3.0,4.0,90,0.00,,,0.00,Wunderground v.1.15,2013-03-01 11:50:00,
2013-03-01 03:55:00,53.0,50.1,30.44,South,170,3.0,6.0,90,0.00,,,0.00,Wunderground v.1.15,2013-03-01 11:55:00,
2013-03-01 04:05:00,52.9,50.0,30.44,South,182,3.0,4.0,90,0.00,,,0.00,Wunderground v.1.15,2013-03-01 12:05:00,
2013-03-01 04:15:00,52.8,49.9,30.43,South,182,1.0,2.0,90,0.00,,,0.00,Wunderground v.1.15,2013-03-01 12:15:00,
2013-03-01 04:25:00,52.7,49.8,30.44,South,180,2.0,2.0,90,0.00,,,0.00,Wunderground v.1.15,2013-03-01 12:25:00,
2013-03-01 04:30:00,52.7,49.8,30.43,South,184,2.0,2.0,90,0.00,,,0.00,Wunderground v.1.15,2013-03-01 12:30:00,
2013-03-01 04:40:00,52.7,49.8,30.43,SSE,166,2.0,3.0,90,0.00,,,0.00,Wunderground v.1.15,2013-03-01 12:40:00,
2013-03-01 04:45:00,52.7,50.1,30.43,SSW,202,3.0,4.0,91,0.00,,,0.00,Wunderground v.1.15,2013-03-01 12:45:00,
2013-03-01 04:55:00,52.6,50.0,30.43,South,181,2.0,3.0,91,0.00,,,0.00,Wunderground v.1.15,2013-03-01 12:55:00,
2013-03-01 05:05:00,52.4,49.8,30.43,SSE,151,3.0,5.0,91,0.00,,,0.00,Wunderground v.1.15,2013-03-01 13:05:00,
2013-03-01 05:15:00,52.4,49.8,30.43,SSE,148,2.0,3.0,91,0.00,,,0.00,Wunderground v.1.15,2013-03-01 13:15:00,
2013-03-01 05:20:00,52.4,49.8,30.43,South,181,1.0,1.0,91,0.00,,,0.00,Wunderground v.1.15,2013-03-01 13:20:00,
2013-03-01 05:30:00,52.3,49.8,30.43,South,178,1.0,1.0,91,0.00,,,0.00,Wunderground v.1.15,2013-03-01 13:30:00,
2013-03-01 05:40:00,52.2,49.7,30.43,South,184,0.0,0.0,91,0.00,,,0.00,Wunderground v.1.15,2013-03-01 13:40:00,
2013-03-01 05:45:00,52.2,49.7,30.43,South,184,0.0,0.0,91,0.00,,,0.00,Wunderground v.1.15,2013-03-01 13:45:00,
2013-03-01 05:55:00,52.1,49.6,30.44,South,184,0.0,0.0,91,0.00,,,0.00,Wunderground v.1.15,2013-03-01 13:55:00,
2013-03-01 06:05:00,52.0,49.7,30.44,South,186,0.0,2.0,92,0.00,,,0.00,Wunderground v.1.15,2013-03-01 14:05:00,
2013-03-01 06:15:00,51.9,49.6,30.44,South,184,1.0,2.0,92,0.00,,,0.00,Wunderground v.1.15,2013-03-01 14:15:00,
2013-03-01 06:20:00,51.9,49.6,30.44,South,184,1.0,1.0,92,0.00,,,0.00,Wunderground v.1.15,2013-03-01 14:20:00,
2013-03-01 06:30:00,51.8,49.5,30.42,SE,143,1.0,1.0,92,0.00,,,0.00,Wunderground v.1.15,2013-03-01 14:30:00,
2013-03-01 06:40:00,51.8,49.5,30.43,SE,132,1.0,2.0,92,0.00,,,0.00,Wunderground v.1.15,2013-03-01 14:40:00,
2013-03-01 06:45:00,51.7,49.5,30.42,SSE,158,1.0,2.0,92,0.00,,,0.00,Wunderground v.1.15,2013-03-01 14:45:00,
2013-03-01 06:55:00,51.6,49.4,30.43,South,173,1.0,1.0,92,0.00,,,0.00,Wunderground v.1.15,2013-03-01 14:55:00,
2013-03-01 07:00:00,51.5,49.3,30.43,South,178,1.0,2.0,92,0.00,,,0.00,Wunderground v.1.15,2013-03-01 15:00:00,
2013-03-01 07:05:00,51.5,49.3,30.43,South,176,2.0,3.0,92,0.00,,,0.00,Wunderground v.1.15,2013-03-01 15:05:00,
2013-03-01 07:15:00,51.5,49.3,30.43,South,177,2.0,2.0,92,0.00,,,0.00,Wunderground v.1.15,2013-03-01 15:15:00,
2013-03-01 07:25:00,51.7,49.5,30.43,South,190,3.0,3.0,92,0.00,,,0.00,Wunderground v.1.15,2013-03-01 15:25:00,
2013-03-01 07:30:00,51.8,49.8,30.44,SSW,205,2.0,3.0,93,0.00,,,0.00,Wunderground v.1.15,2013-03-01 15:30:00,
2013-03-01 07:40:00,52.2,49.9,30.44,South,182,1.0,1.0,92,0.00,,,0.00,Wunderground v.1.15,2013-03-01 15:40:00,
2013-03-01 07:45:00,52.4,50.1,30.44,South,173,1.0,2.0,92,0.00,,,0.00,Wunderground v.1.15,2013-03-01 15:45:00,
2013-03-01 07:50:00,52.4,49.8,30.44,SSW,197,2.0,5.0,91,0.00,,,0.00,Wunderground v.1.15,2013-03-01 15:50:00,
2013-03-01 07:55:00,52.4,49.8,30.44,South,184,2.0,5.0,91,0.00,,,0.00,Wunderground v.1.15,2013-03-01 15:55:00,
2013-03-01 08:00:00,52.5,49.9,30.45,South,182,2.0,3.0,91,0.00,,,0.00,Wunderground v.1.15,2013-03-01 16:00:00,
2013-03-01 08:10:00,52.5,49.9,30.45,SSW,192,1.0,1.0,91,0.00,,,0.00,Wunderground v.1.15,2013-03-01 16:10:00,
2013-03-01 08:15:00,52.6,50.0,30.45,South,180,2.0,4.0,91,0.00,,,0.00,Wunderground v.1.15,2013-03-01 16:15:00,
2013-03-01 08:25:00,52.8,49.9,30.45,South,186,1.0,2.0,90,0.00,,,0.00,Wunderground v.1.15,2013-03-01 16:25:00,
2013-03-01 08:35:00,53.0,50.1,30.45,SSW,212,2.0,2.0,90,0.00,,,0.00,Wunderground v.1.15,2013-03-01 16:35:00,
2013-03-01 08:40:00,53.2,50.0,30.45,South,174,2.0,2.0,89,0.00,,,0.00,Wunderground v.1.15,2013-03-01 16:40:00,
2013-03-01 08:45:00,53.3,50.1,30.45,South,189,2.0,3.0,89,0.00,,,0.00,Wunderground v.1.15,2013-03-01 16:45:00,
2013-03-01 08:50:00,53.4,50.2,30.45,South,184,2.0,3.0,89,0.00,,,0.00,Wunderground v.1.15,2013-03-01 16:50:00,
2013-03-01 09:00:00,53.6,50.1,30.44,SSW,197,3.0,3.0,88,0.00,,,0.00,Wunderground v.1.15,2013-03-01 17:00:00,
2013-03-01 09:05:00,53.7,50.2,30.44,South,183,3.0,3.0,88,0.00,,,0.00,Wunderground v.1.15,2013-03-01 17:05:00,
2013-03-01 09:15:00,54.1,50.6,30.44,SSW,194,3.0,4.0,88,0.00,,,0.00,Wunderground v.1.15,2013-03-01 17:15:00,
2013-03-01 09:25:00,54.3,50.5,30.44,South,176,4.0,6.0,87,0.00,,,0.00,Wunderground v.1.15,2013-03-01 17:25:00,
2013-03-01 09:30:00,54.4,50.3,30.44,SSE,149,4.0,4.0,86,0.00,,,0.00,Wunderground v.1.15,2013-03-01 17:30:00,
2013-03-01 09:40:00,54.6,50.5,30.44,South,174,3.0,3.0,86,0.00,,,0.00,Wunderground v.1.15,2013-03-01 17:40:00,
2013-03-01 09:50:00,54.6,50.2,30.44,South,182,3.0,3.0,85,0.00,,,0.00,Wunderground v.1.15,2013-03-01 17:50:00,
2013-03-01 10:00:00,54.8,50.7,30.44,SSE,167,2.0,2.0,86,0.00,,,0.00,Wunderground v.1.15,2013-03-01 18:00:00,
2013-03-01 10:10:00,54.7,50.6,30.44,SSW,197,3.0,3.0,86,0.00,,,0.00,Wunderground v.1.15,2013-03-01 18:10:00,
2013-03-01 10:20:00,54.7,50.3,30.44,South,182,3.0,4.0,85,0.00,,,0.00,Wunderground v.1.15,2013-03-01 18:20:00,
2013-03-01 10:30:00,54.9,50.8,30.44,South,178,2.0,2.0,86,0.00,,,0.00,Wunderground v.1.15,2013-03-01 18:30:00,
2013-03-01 10:40:00,55.2,51.1,30.44,South,184,2.0,4.0,86,0.00,,,0.00,Wunderground v.1.15,2013-03-01 18:40:00,
2013-03-01 10:45:00,55.3,50.9,30.44,South,175,2.0,4.0,85,0.00,,,0.00,Wunderground v.1.15,2013-03-01 18:45:00,
2013-03-01 10:55:00,55.6,50.8,30.44,South,169,3.0,3.0,84,0.00,,,0.00,Wunderground v.1.15,2013-03-01 18:55:00,
2013-03-01 11:00:00,55.7,50.9,30.43,South,169,4.0,4.0,84,0.00,,,0.00,Wunderground v.1.15,2013-03-01 19:00:00,
2013-03-01 11:05:00,55.8,51.0,30.43,SSE,157,4.0,4.0,84,0.00,,,0.00,Wunderground v.1.15,2013-03-01 19:05:00,
2013-03-01 11:15:00,56.0,51.2,30.43,SSW,192,4.0,6.0,84,0.00,,,0.00,Wunderground v.1.15,2013-03-01 19:15:00,
2013-03-01 11:25:00,56.6,51.5,30.43,South,178,3.0,4.0,83,0.00,,,0.00,Wunderground v.1.15,2013-03-01 19:25:00,
2013-03-01 11:30:00,56.9,51.5,30.43,South,175,4.0,5.0,82,0.00,,,0.00,Wunderground v.1.15,2013-03-01 19:30:00,
2013-03-01 11:40:00,57.3,51.2,30.43,ESE,109,4.0,5.0,80,0.00,,,0.00,Wunderground v.1.15,2013-03-01 19:40:00,
2013-03-01 11:55:00,-999.9,-99.9,30.43,North,32767,-999.0,0.0,255,-99.99,,,0.00,Wunderground v.1.15,2013-03-01 19:55:00,
2013-03-01 12:00:00,-999.9,-99.9,30.43,North,32767,-999.0,0.0,255,-99.99,,,0.00,Wunderground v.1.15,2013-03-01 20:00:00,
2013-03-01 12:10:00,57.8,51.3,30.43,SW,222,2.0,2.0,79,0.00,,,0.00,Wunderground v.1.15,2013-03-01 20:10:00,
2013-03-01 12:15:00,57.7,51.2,30.43,South,179,3.0,6.0,79,0.00,,,0.00,Wunderground v.1.15,2013-03-01 20:15:00,
2013-03-01 12:25:00,57.5,51.0,30.42,South,182,3.0,5.0,79,0.00,,,0.00,Wunderground v.1.15,2013-03-01 20:25:00,
2013-03-01 12:30:00,57.5,51.0,30.42,SW,232,2.0,2.0,79,0.00,,,0.00,Wunderground v.1.15,2013-03-01 20:30:00,
2013-03-01 12:40:00,58.0,51.2,30.41,West,273,1.0,2.0,78,0.00,,,0.00,Wunderground v.1.15,2013-03-01 20:40:00,
2013-03-01 12:45:00,58.2,51.4,30.41,South,172,2.0,6.0,78,0.00,,,0.00,Wunderground v.1.15,2013-03-01 20:45:00,
2013-03-01 12:50:00,58.5,51.7,30.41,South,183,2.0,4.0,78,0.00,,,0.00,Wunderground v.1.15,2013-03-01 20:50:00,
2013-03-01 13:00:00,59.3,51.7,30.40,SSW,200,2.0,2.0,76,0.00,,,0.00,Wunderground v.1.15,2013-03-01 21:00:00,
2013-03-01 13:05:00,59.5,51.6,30.40,WNW,289,2.0,3.0,75,0.00,,,0.00,Wunderground v.1.15,2013-03-01 21:05:00,
2013-03-01 13:10:00,59.7,52.1,30.40,NNW,338,2.0,2.0,76,0.00,,,0.00,Wunderground v.1.15,2013-03-01 21:10:00,
2013-03-01 13:15:00,59.8,51.5,30.40,WSW,246,1.0,2.0,74,0.00,,,0.00,Wunderground v.1.15,2013-03-01 21:15:00,
2013-03-01 13:25:00,59.7,51.8,30.40,SW,227,1.0,2.0,75,0.00,,,0.00,Wunderground v.1.15,2013-03-01 21:25:00,
2013-03-01 13:30:00,59.8,51.9,30.39,SW,219,1.0,1.0,75,0.00,,,0.00,Wunderground v.1.15,2013-03-01 21:30:00,
2013-03-01 13:40:00,60.1,52.1,30.39,SSW,194,2.0,5.0,75,0.00,,,0.00,Wunderground v.1.15,2013-03-01 21:40:00,
2013-03-01 13:50:00,60.2,51.9,30.39,SW,232,1.0,1.0,74,0.00,,,0.00,Wunderground v.1.15,2013-03-01 21:50:00,
2013-03-01 14:00:00,60.0,52.1,30.39,SSW,212,2.0,2.0,75,0.00,,,0.00,Wunderground v.1.15,2013-03-01 22:00:00,
2013-03-01 14:10:00,60.2,51.9,30.39,WSW,238,1.0,3.0,74,0.00,,,0.00,Wunderground v.1.15,2013-03-01 22:10:00,
2013-03-01 14:20:00,60.0,51.7,30.38,West,269,1.0,1.0,74,0.00,,,0.00,Wunderground v.1.15,2013-03-01 22:20:00,
2013-03-01 14:30:00,60.1,51.8,30.38,West,273,0.0,2.0,74,0.00,,,0.00,Wunderground v.1.15,2013-03-01 22:30:00,
2013-03-01 14:40:00,59.9,51.6,30.38,West,265,1.0,1.0,74,0.00,,,0.00,Wunderground v.1.15,2013-03-01 22:40:00,
2013-03-01 14:50:00,60.0,51.7,30.38,SW,230,1.0,3.0,74,0.00,,,0.00,Wunderground v.1.15,2013-03-01 22:50:00,
2013-03-01 15:00:00,59.7,51.4,30.38,South,171,2.0,2.0,74,0.00,,,0.00,Wunderground v.1.15,2013-03-01 23:00:00,
2013-03-01 15:10:00,59.7,51.4,30.37,SW,217,1.0,1.0,74,0.00,,,0.00,Wunderground v.1.15,2013-03-01 23:10:00,
2013-03-01 15:15:00,59.8,51.9,30.37,SW,217,1.0,1.0,75,0.00,,,0.00,Wunderground v.1.15,2013-03-01 23:15:00,
2013-03-01 15:25:00,60.2,51.9,30.37,South,176,1.0,3.0,74,0.00,,,0.00,Wunderground v.1.15,2013-03-01 23:25:00,
2013-03-01 15:30:00,60.0,51.3,30.37,South,186,1.0,1.0,73,0.00,,,0.00,Wunderground v.1.15,2013-03-01 23:30:00,
2013-03-01 15:40:00,59.8,51.5,30.36,South,186,0.0,0.0,74,0.00,,,0.00,Wunderground v.1.15,2013-03-01 23:40:00,
2013-03-01 15:50:00,59.7,51.4,30.36,SW,219,1.0,1.0,74,0.00,,,0.00,Wunderground v.1.15,2013-03-01 23:50:00,
2013-03-01 15:55:00,59.7,51.4,30.36,SW,219,1.0,1.0,74,0.00,,,0.00,Wunderground v.1.15,2013-03-01 23:55:00,
2013-03-01 16:00:00,59.8,51.9,30.36,SW,229,1.0,1.0,75,0.00,,,0.00,Wunderground v.1.15,2013-03-02 00:00:00,
2013-03-01 16:10:00,59.6,51.3,30.36,South,179,1.0,1.0,74,0.00,,,0.00,Wunderground v.1.15,2013-03-02 00:10:00,
2013-03-01 16:15:00,59.6,51.3,30.36,SW,223,1.0,1.0,74,0.00,,,0.00,Wunderground v.1.15,2013-03-02 00:15:00,
2013-03-01 16:25:00,59.6,51.3,30.35,South,186,1.0,1.0,74,0.00,,,0.00,Wunderground v.1.15,2013-03-02 00:25:00,
2013-03-01 16:30:00,59.6,51.3,30.35,South,186,0.0,0.0,74,0.00,,,0.00,Wunderground v.1.15,2013-03-02 00:30:00,
2013-03-01 16:40:00,59.8,51.9,30.35,WSW,250,0.0,0.0,75,0.00,,,0.00,Wunderground v.1.15,2013-03-02 00:40:00,
2013-03-01 16:45:00,59.9,52.0,30.35,WSW,250,0.0,0.0,75,0.00,,,0.00,Wunderground v.1.15,2013-03-02 00:45:00,
2013-03-01 16:55:00,60.1,52.1,30.35,WSW,250,0.0,1.0,75,0.00,,,0.00,Wunderground v.1.15,2013-03-02 00:55:00,
2013-03-01 17:00:00,60.3,52.3,30.35,WSW,250,0.0,0.0,75,0.00,,,0.00,Wunderground v.1.15,2013-03-02 01:00:00,
2013-03-01 17:05:00,60.4,52.1,30.35,WSW,250,0.0,0.0,74,0.00,,,0.00,Wunderground v.1.15,2013-03-02 01:05:00,
2013-03-01 17:15:00,60.3,52.0,30.34,WSW,250,0.0,0.0,74,0.00,,,0.00,Wunderground v.1.15,2013-03-02 01:15:00,
2013-03-01 17:25:00,60.0,52.1,30.34,WSW,250,0.0,0.0,75,0.00,,,0.00,Wunderground v.1.15,2013-03-02 01:25:00,
2013-03-01 17:30:00,59.8,51.9,30.34,WSW,250,0.0,0.0,75,0.00,,,0.00,Wunderground v.1.15,2013-03-02 01:30:00,
2013-03-01 17:40:00,59.4,51.8,30.34,WNW,289,0.0,1.0,76,0.00,,,0.00,Wunderground v.1.15,2013-03-02 01:40:00,
2013-03-01 17:45:00,58.9,51.7,30.34,West,276,0.0,1.0,77,0.00,,,0.00,Wunderground v.1.15,2013-03-02 01:45:00,
2013-03-01 17:55:00,58.3,51.5,30.34,West,276,0.0,1.0,78,0.00,,,0.00,Wunderground v.1.15,2013-03-02 01:55:00,
2013-03-01 18:00:00,57.9,51.4,30.34,West,276,0.0,0.0,79,0.00,,,0.00,Wunderground v.1.15,2013-03-02 02:00:00,
2013-03-01 18:05:00,57.6,51.1,30.34,West,276,0.0,0.0,79,0.00,,,0.00,Wunderground v.1.15,2013-03-02 02:05:00,
2013-03-01 18:10:00,57.3,51.2,30.34,West,276,0.0,0.0,80,0.00,,,0.00,Wunderground v.1.15,2013-03-02 02:10:00,
2013-03-01 18:15:00,56.9,51.1,30.34,West,276,0.0,0.0,81,0.00,,,0.00,Wunderground v.1.15,2013-03-02 02:15:00,
2013-03-01 18:25:00,56.2,50.8,30.34,West,276,0.0,0.0,82,0.00,,,0.00,Wunderground v.1.15,2013-03-02 02:25:00,
2013-03-01 18:30:00,55.9,50.5,30.34,West,276,0.0,0.0,82,0.00,,,0.00,Wunderground v.1.15,2013-03-02 02:30:00,
2013-03-01 18:40:00,55.3,50.2,30.33,West,276,0.0,0.0,83,0.00,,,0.00,Wunderground v.1.15,2013-03-02 02:40:00,
2013-03-01 18:45:00,55.1,50.4,30.33,West,276,0.0,0.0,84,0.00,,,0.00,Wunderground v.1.15,2013-03-02 02:45:00,
2013-03-01 18:55:00,54.7,50.0,30.33,West,276,0.0,0.0,84,0.00,,,0.00,Wunderground v.1.15,2013-03-02 02:55:00,
2013-03-01 19:00:00,54.4,50.0,30.33,West,276,0.0,0.0,85,0.00,,,0.00,Wunderground v.1.15,2013-03-02 03:00:00,
2013-03-01 19:10:00,53.8,49.7,30.34,West,276,0.0,0.0,86,0.00,,,0.00,Wunderground v.1.15,2013-03-02 03:10:00,
2013-03-01 19:15:00,53.6,49.5,30.34,West,276,0.0,0.0,86,0.00,,,0.00,Wunderground v.1.15,2013-03-02 03:15:00,
2013-03-01 19:25:00,53.2,49.4,30.34,West,276,0.0,0.0,87,0.00,,,0.00,Wunderground v.1.15,2013-03-02 03:25:00,
2013-03-01 19:30:00,53.0,49.2,30.34,West,276,0.0,0.0,87,0.00,,,0.00,Wunderground v.1.15,2013-03-02 03:30:00,
2013-03-01 19:40:00,52.7,49.2,30.34,West,276,0.0,0.0,88,0.00,,,0.00,Wunderground v.1.15,2013-03-02 03:40:00,
2013-03-01 19:45:00,52.7,49.2,30.34,West,276,0.0,0.0,88,0.00,,,0.00,Wunderground v.1.15,2013-03-02 03:45:00,
2013-03-01 19:50:00,52.8,49.3,30.34,West,276,0.0,0.0,88,0.00,,,0.00,Wunderground v.1.15,2013-03-02 03:50:00,
2013-03-01 20:00:00,52.8,49.6,30.33,West,276,0.0,0.0,89,0.00,,,0.00,Wunderground v.1.15,2013-03-02 04:00:00,
2013-03-01 20:10:00,52.8,49.6,30.33,West,276,0.0,0.0,89,0.00,,,0.00,Wunderground v.1.15,2013-03-02 04:10:00,
2013-03-01 20:15:00,52.9,49.7,30.33,West,276,0.0,0.0,89,0.00,,,0.00,Wunderground v.1.15,2013-03-02 04:15:00,
2013-03-01 20:25:00,53.2,49.7,30.33,West,276,0.0,0.0,88,0.00,,,0.00,Wunderground v.1.15,2013-03-02 04:25:00,
2013-03-01 20:30:00,53.3,49.8,30.33,West,276,0.0,0.0,88,0.00,,,0.00,Wunderground v.1.15,2013-03-02 04:30:00,
2013-03-01 20:35:00,53.3,49.8,30.33,West,276,0.0,0.0,88,0.00,,,0.00,Wunderground v.1.15,2013-03-02 04:35:00,
2013-03-01 20:45:00,53.4,49.9,30.33,West,276,0.0,0.0,88,0.00,,,0.00,Wunderground v.1.15,2013-03-02 04:45:00,
2013-03-01 20:50:00,53.4,49.9,30.33,West,276,0.0,0.0,88,0.00,,,0.00,Wunderground v.1.15,2013-03-02 04:50:00,
2013-03-01 20:55:00,53.3,49.8,30.33,West,276,0.0,0.0,88,0.00,,,0.00,Wunderground v.1.15,2013-03-02 04:55:00,
2013-03-01 21:00:00,53.3,49.8,30.33,West,276,0.0,0.0,88,0.00,,,0.00,Wunderground v.1.15,2013-03-02 05:00:00,
2013-03-01 21:05:00,53.4,49.9,30.33,West,276,0.0,0.0,88,0.00,,,0.00,Wunderground v.1.15,2013-03-02 05:05:00,
2013-03-01 21:10:00,53.3,49.5,30.34,West,276,0.0,0.0,87,0.00,,,0.00,Wunderground v.1.15,2013-03-02 05:10:00,
2013-03-01 21:15:00,53.3,49.5,30.33,West,276,0.0,0.0,87,0.00,,,0.00,Wunderground v.1.15,2013-03-02 05:15:00,
2013-03-01 21:25:00,53.1,49.6,30.34,West,276,0.0,0.0,88,0.00,,,0.00,Wunderground v.1.15,2013-03-02 05:25:00,
2013-03-01 21:30:00,53.0,49.5,30.33,West,276,0.0,0.0,88,0.00,,,0.00,Wunderground v.1.15,2013-03-02 05:30:00,
2013-03-01 21:40:00,52.9,49.4,30.33,West,276,0.0,0.0,88,0.00,,,0.00,Wunderground v.1.15,2013-03-02 05:40:00,
2013-03-01 21:45:00,52.8,49.6,30.33,West,276,0.0,0.0,89,0.00,,,0.00,Wunderground v.1.15,2013-03-02 05:45:00,
2013-03-01 21:50:00,52.8,49.6,30.34,West,276,0.0,0.0,89,0.00,,,0.00,Wunderground v.1.15,2013-03-02 05:50:00,
2013-03-01 21:55:00,52.9,49.7,30.34,West,276,0.0,0.0,89,0.00,,,0.00,Wunderground v.1.15,2013-03-02 05:55:00,
2013-03-01 22:00:00,52.8,49.6,30.34,West,276,0.0,0.0,89,0.00,,,0.00,Wunderground v.1.15,2013-03-02 06:00:00,
2013-03-01 22:10:00,52.6,49.4,30.33,West,276,0.0,0.0,89,0.00,,,0.00,Wunderground v.1.15,2013-03-02 06:10:00,
2013-03-01 22:15:00,52.6,49.4,30.33,West,276,0.0,0.0,89,0.00,,,0.00,Wunderground v.1.15,2013-03-02 06:15:00,
2013-03-01 22:25:00,52.4,49.3,30.33,West,276,0.0,0.0,89,0.00,,,0.00,Wunderground v.1.15,2013-03-02 06:25:00,
2013-03-01 22:30:00,52.3,49.2,30.33,West,276,0.0,0.0,89,0.00,,,0.00,Wunderground v.1.15,2013-03-02 06:30:00,
2013-03-01 22:40:00,52.1,49.0,30.34,West,276,0.0,0.0,89,0.00,,,0.00,Wunderground v.1.15,2013-03-02 06:40:00,
2013-03-01 22:45:00,52.1,49.3,30.34,West,276,0.0,0.0,90,0.00,,,0.00,Wunderground v.1.15,2013-03-02 06:45:00,
2013-03-01 22:55:00,52.1,49.3,30.33,West,276,0.0,0.0,90,0.00,,,0.00,Wunderground v.1.15,2013-03-02 06:55:00,
2013-03-01 23:05:00,52.2,49.4,30.33,West,276,0.0,0.0,90,0.00,,,0.00,Wunderground v.1.15,2013-03-02 07:05:00,
2013-03-01 23:10:00,52.2,49.4,30.33,West,276,0.0,0.0,90,0.00,,,0.00,Wunderground v.1.15,2013-03-02 07:10:00,
2013-03-01 23:15:00,52.1,49.3,30.33,West,276,0.0,0.0,90,0.00,,,0.00,Wunderground v.1.15,2013-03-02 07:15:00,
2013-03-01 23:25:00,52.0,49.2,30.32,West,276,0.0,0.0,90,0.00,,,0.00,Wunderground v.1.15,2013-03-02 07:25:00,
2013-03-01 23:35:00,51.8,48.7,30.32,West,276,0.0,0.0,89,0.00,,,0.00,Wunderground v.1.15,2013-03-02 07:35:00,
2013-03-01 23:40:00,51.7,48.6,30.32,West,276,0.0,0.0,89,0.00,,,0.00,Wunderground v.1.15,2013-03-02 07:40:00,
2013-03-01 23:50:00,51.4,48.3,30.32,West,276,0.0,0.0,89,0.00,,,0.00,Wunderground v.1.15,2013-03-02 07:50:00,
2013-03-01 23:55:00,51.4,48.6,30.32,West,276,0.0,0.0,90,0.00,,,0.00,Wunderground v.1.15,2013-03-02 07:55:00,